sensor_id;sensor_type;location;lat;lon;timestamp;pressure;altitude;pressure_sealevel;temperature;humidity
44481;BME280;30184;42.018;23.670;2022-07-10T00:00:39;90936.88;;;9.42;86.98
44481;BME280;30184;42.018;23.670;2022-07-10T00:03:08;91378.31;;;12.29;86.75
44481;BME280;30184;42.018;23.670;2022-07-10T00:05:38;91405.50;;;11.86;86.35
44481;BME280;30184;42.018;23.670;2022-07-10T00:08:07;91400.13;;;12.39;86.29
44481;BME280;30184;42.018;23.670;2022-07-10T00:10:36;91210.75;;;10.45;86.79
44481;BME280;30184;42.018;23.670;2022-07-10T00:13:05;90997.72;;;9.50;87.18
44481;BME280;30184;42.018;23.670;2022-07-10T00:15:35;91280.31;;;10.99;87.71
44481;BME280;30184;42.018;23.670;2022-07-10T00:18:05;91338.97;;;11.78;87.55
44481;BME280;30184;42.018;23.670;2022-07-10T00:20:34;91079.59;;;9.03;87.10
44481;BME280;30184;42.018;23.670;2022-07-10T00:23:05;91378.69;;;11.15;87.84
44481;BME280;30184;42.018;23.670;2022-07-10T00:25:35;91390.56;;;11.09;87.93
44481;BME280;30184;42.018;23.670;2022-07-10T00:28:04;91226.25;;;9.81;87.85
44481;BME280;30184;42.018;23.670;2022-07-10T00:30:34;91336.56;;;11.11;87.87
44481;BME280;30184;42.018;23.670;2022-07-10T00:33:04;91137.72;;;9.53;87.66
44481;BME280;30184;42.018;23.670;2022-07-10T00:35:33;91005.06;;;8.48;87.21
44481;BME280;30184;42.018;23.670;2022-07-10T00:38:02;91089.91;;;9.08;87.54
44481;BME280;30184;42.018;23.670;2022-07-10T00:40:31;91200.03;;;9.91;87.58
44481;BME280;30184;42.018;23.670;2022-07-10T00:43:00;91405.81;;;11.88;87.70
44481;BME280;30184;42.018;23.670;2022-07-10T00:45:29;91262.16;;;10.10;87.08
44481;BME280;30184;42.018;23.670;2022-07-10T00:48:00;91005.47;;;8.17;87.09
44481;BME280;30184;42.018;23.670;2022-07-10T00:50:29;91039.81;;;8.62;87.13
44481;BME280;30184;42.018;23.670;2022-07-10T00:52:59;91308.88;;;10.02;87.36
44481;BME280;30184;42.018;23.670;2022-07-10T00:55:28;90984.34;;;9.08;87.21
44481;BME280;30184;42.018;23.670;2022-07-10T00:57:58;91395.44;;;10.63;87.16
44481;BME280;30184;42.018;23.670;2022-07-10T01:00:28;91323.88;;;10.06;86.81
44481;BME280;30184;42.018;23.670;2022-07-10T01:02:57;91339.84;;;11.40;86.70
44481;BME280;30184;42.018;23.670;2022-07-10T01:05:27;91235.47;;;9.84;86.38
44481;BME280;30184;42.018;23.670;2022-07-10T01:07:56;90947.25;;;8.29;85.96
44481;BME280;30184;42.018;23.670;2022-07-10T01:10:25;91438.06;;;11.51;86.75
44481;BME280;30184;42.018;23.670;2022-07-10T01:12:55;91120.22;;;8.62;86.73
44481;BME280;30184;42.018;23.670;2022-07-10T01:15:24;91342.63;;;11.15;86.92
44481;BME280;30184;42.018;23.670;2022-07-10T01:17:53;91376.38;;;11.39;87.00
44481;BME280;30184;42.018;23.670;2022-07-10T01:20:31;91331.19;;;10.60;86.95
44481;BME280;30184;42.018;23.670;2022-07-10T01:23:01;91226.28;;;8.98;86.86
44481;BME280;30184;42.018;23.670;2022-07-10T01:25:30;90812.69;;;7.57;86.71
44481;BME280;30184;42.018;23.670;2022-07-10T01:28:00;91070.81;;;8.29;86.74
44481;BME280;30184;42.018;23.670;2022-07-10T01:30:29;91052.88;;;8.22;87.01
44481;BME280;30184;42.018;23.670;2022-07-10T01:32:57;91240.25;;;9.09;87.49
44481;BME280;30184;42.018;23.670;2022-07-10T01:35:27;90911.47;;;7.83;87.50
44481;BME280;30184;42.018;23.670;2022-07-10T01:37:56;91341.66;;;11.09;87.55
44481;BME280;30184;42.018;23.670;2022-07-10T01:40:26;91047.31;;;8.71;87.14
44481;BME280;30184;42.018;23.670;2022-07-10T01:42:56;91312.19;;;10.47;87.19
44481;BME280;30184;42.018;23.670;2022-07-10T01:45:25;91046.03;;;9.01;87.23
44481;BME280;30184;42.018;23.670;2022-07-10T01:47:54;91459.69;;;10.54;87.69
44481;BME280;30184;42.018;23.670;2022-07-10T01:50:24;91029.25;;;8.80;87.67
44481;BME280;30184;42.018;23.670;2022-07-10T01:52:53;91089.88;;;8.95;87.52
44481;BME280;30184;42.018;23.670;2022-07-10T01:55:22;91188.69;;;8.71;87.37
44481;BME280;30184;42.018;23.670;2022-07-10T01:57:53;91276.19;;;9.26;87.59
44481;BME280;30184;42.018;23.670;2022-07-10T02:00:22;91158.47;;;9.30;87.35
44481;BME280;30184;42.018;23.670;2022-07-10T02:02:51;91315.34;;;10.71;87.43
44481;BME280;30184;42.018;23.670;2022-07-10T02:05:34;91345.63;;;10.82;87.23
44481;BME280;30184;42.018;23.670;2022-07-10T02:08:03;91346.69;;;10.85;87.33
44481;BME280;30184;42.018;23.670;2022-07-10T02:10:33;91132.75;;;8.23;86.89
44481;BME280;30184;42.018;23.670;2022-07-10T02:13:04;90924.75;;;7.78;86.48
44481;BME280;30184;42.018;23.670;2022-07-10T02:15:33;91495.75;;;10.79;86.93
44481;BME280;30184;42.018;23.670;2022-07-10T02:18:02;90777.28;;;6.97;86.35
44481;BME280;30184;42.018;23.670;2022-07-10T02:20:31;91024.50;;;7.85;86.47
44481;BME280;30184;42.018;23.670;2022-07-10T02:23:02;91116.63;;;8.65;87.06
44481;BME280;30184;42.018;23.670;2022-07-10T02:25:31;91065.84;;;8.43;86.94
44481;BME280;30184;42.018;23.670;2022-07-10T02:28:00;91227.97;;;8.92;87.16
44481;BME280;30184;42.018;23.670;2022-07-10T02:30:31;91318.50;;;10.19;87.26
44481;BME280;30184;42.018;23.670;2022-07-10T02:33:01;90817.41;;;6.95;86.90
44481;BME280;30184;42.018;23.670;2022-07-10T02:35:30;91291.44;;;9.90;87.26
44481;BME280;30184;42.018;23.670;2022-07-10T02:37:59;91168.78;;;8.94;86.79
44481;BME280;30184;42.018;23.670;2022-07-10T02:40:29;91104.63;;;8.20;86.66
44481;BME280;30184;42.018;23.670;2022-07-10T02:42:58;90978.22;;;7.54;86.09
44481;BME280;30184;42.018;23.670;2022-07-10T02:45:27;91071.81;;;8.06;86.61
44481;BME280;30184;42.018;23.670;2022-07-10T02:47:57;91050.50;;;7.46;86.58
44481;BME280;30184;42.018;23.670;2022-07-10T02:50:26;91285.22;;;9.07;87.04
44481;BME280;30184;42.018;23.670;2022-07-10T02:52:56;91277.84;;;8.91;87.23
44481;BME280;30184;42.018;23.670;2022-07-10T02:55:25;91229.97;;;8.27;86.70
44481;BME280;30184;42.018;23.670;2022-07-10T02:57:54;91094.00;;;7.97;87.06
44481;BME280;30184;42.018;23.670;2022-07-10T03:00:23;91055.97;;;7.10;86.80
44481;BME280;30184;42.018;23.670;2022-07-10T03:02:53;91006.69;;;7.71;87.18
44481;BME280;30184;42.018;23.670;2022-07-10T03:05:23;91367.47;;;10.12;87.59
44481;BME280;30184;42.018;23.670;2022-07-10T03:07:52;91367.56;;;10.08;87.36
44481;BME280;30184;42.018;23.670;2022-07-10T03:10:21;91314.75;;;9.59;87.46
44481;BME280;30184;42.018;23.670;2022-07-10T03:12:50;91203.84;;;8.69;87.46
44481;BME280;30184;42.018;23.670;2022-07-10T03:15:19;91301.88;;;9.63;87.59
44481;BME280;30184;42.018;23.670;2022-07-10T03:17:49;91370.28;;;10.08;87.49
44481;BME280;30184;42.018;23.670;2022-07-10T03:20:18;91313.03;;;9.65;87.38
44481;BME280;30184;42.018;23.670;2022-07-10T03:22:48;91212.66;;;7.92;87.21
44481;BME280;30184;42.018;23.670;2022-07-10T03:25:17;90879.94;;;6.42;86.94
44481;BME280;30184;42.018;23.670;2022-07-10T03:27:47;90898.22;;;6.34;86.90
44481;BME280;30184;42.018;23.670;2022-07-10T03:30:16;90957.69;;;7.11;86.82
44481;BME280;30184;42.018;23.670;2022-07-10T03:32:45;91345.41;;;8.46;86.81
44481;BME280;30184;42.018;23.670;2022-07-10T03:35:14;91219.34;;;8.97;87.16
44481;BME280;30184;42.018;23.670;2022-07-10T03:37:43;91372.41;;;10.01;87.74
44481;BME280;30184;42.018;23.670;2022-07-10T03:40:14;91379.34;;;10.02;88.17
44481;BME280;30184;42.018;23.670;2022-07-10T03:42:43;91203.03;;;8.55;87.77
44481;BME280;30184;42.018;23.670;2022-07-10T03:45:12;91033.34;;;7.04;87.64
44481;BME280;30184;42.018;23.670;2022-07-10T03:47:41;91106.66;;;7.19;87.62
44481;BME280;30184;42.018;23.670;2022-07-10T03:50:10;91150.69;;;8.01;87.13
44481;BME280;30184;42.018;23.670;2022-07-10T03:52:38;91367.16;;;10.10;87.00
44481;BME280;30184;42.018;23.670;2022-07-10T03:55:08;91079.63;;;8.16;86.54
44481;BME280;30184;42.018;23.670;2022-07-10T03:57:39;91237.88;;;9.40;86.94
44481;BME280;30184;42.018;23.670;2022-07-10T04:00:22;91362.44;;;10.27;87.08
44481;BME280;30184;42.018;23.670;2022-07-10T04:02:55;91361.13;;;10.31;87.00
44481;BME280;30184;42.018;23.670;2022-07-10T04:05:25;91160.28;;;8.79;86.74
44481;BME280;30184;42.018;23.670;2022-07-10T04:07:55;91382.28;;;9.95;86.97
44481;BME280;30184;42.018;23.670;2022-07-10T04:10:26;91328.97;;;10.17;86.71
44481;BME280;30184;42.018;23.670;2022-07-10T04:12:57;91289.63;;;9.29;86.42
44481;BME280;30184;42.018;23.670;2022-07-10T04:15:26;90977.97;;;8.06;85.42
44481;BME280;30184;42.018;23.670;2022-07-10T04:17:55;91138.88;;;10.28;82.79
44481;BME280;30184;42.018;23.670;2022-07-10T04:20:24;90997.22;;;9.29;78.72
44481;BME280;30184;42.018;23.670;2022-07-10T04:22:54;91300.50;;;12.72;76.51
44481;BME280;30184;42.018;23.670;2022-07-10T04:25:23;91196.56;;;12.15;73.83
44481;BME280;30184;42.018;23.670;2022-07-10T04:27:52;91168.03;;;12.87;71.21
44481;BME280;30184;42.018;23.670;2022-07-10T04:30:22;91274.91;;;13.28;69.38
44481;BME280;30184;42.018;23.670;2022-07-10T04:32:51;91197.06;;;13.08;67.52
44481;BME280;30184;42.018;23.670;2022-07-10T04:35:21;91198.28;;;14.23;66.61
44481;BME280;30184;42.018;23.670;2022-07-10T04:37:50;91185.91;;;13.43;65.62
44481;BME280;30184;42.018;23.670;2022-07-10T04:40:19;91332.66;;;14.69;64.32
44481;BME280;30184;42.018;23.670;2022-07-10T04:42:48;91368.50;;;15.70;64.21
44481;BME280;30184;42.018;23.670;2022-07-10T04:45:17;91425.13;;;15.45;63.37
44481;BME280;30184;42.018;23.670;2022-07-10T04:47:47;91344.25;;;15.53;63.17
44481;BME280;30184;42.018;23.670;2022-07-10T04:50:17;91122.66;;;14.47;63.75
44481;BME280;30184;42.018;23.670;2022-07-10T04:52:46;91157.56;;;14.01;62.80
44481;BME280;30184;42.018;23.670;2022-07-10T04:55:15;91138.31;;;14.04;62.50
44481;BME280;30184;42.018;23.670;2022-07-10T04:57:44;91050.91;;;14.23;61.56
44481;BME280;30184;42.018;23.670;2022-07-10T05:00:14;91049.94;;;14.59;61.17
44481;BME280;30184;42.018;23.670;2022-07-10T05:02:43;91333.84;;;16.58;60.94
44481;BME280;30184;42.018;23.670;2022-07-10T05:05:14;91187.13;;;15.40;61.58
44481;BME280;30184;42.018;23.670;2022-07-10T05:07:43;91215.06;;;15.44;59.94
44481;BME280;30184;42.018;23.670;2022-07-10T05:10:12;91271.69;;;16.35;60.83
44481;BME280;30184;42.018;23.670;2022-07-10T05:12:41;91231.00;;;15.98;59.57
44481;BME280;30184;42.018;23.670;2022-07-10T05:15:10;91124.75;;;15.67;58.07
44481;BME280;30184;42.018;23.670;2022-07-10T05:17:39;91147.78;;;17.30;55.90
44481;BME280;30184;42.018;23.670;2022-07-10T05:20:10;91304.47;;;19.02;54.74
44481;BME280;30184;42.018;23.670;2022-07-10T05:22:41;91243.22;;;19.01;53.39
44481;BME280;30184;42.018;23.670;2022-07-10T05:25:10;90891.22;;;17.24;51.54
44481;BME280;30184;42.018;23.670;2022-07-10T05:27:39;91078.72;;;18.15;51.86
44481;BME280;30184;42.018;23.670;2022-07-10T05:30:09;91217.91;;;19.94;50.78
44481;BME280;30184;42.018;23.670;2022-07-10T05:37:28;91279.22;;;21.09;48.36
44481;BME280;30184;42.018;23.670;2022-07-10T05:39:58;91158.88;;;20.78;47.46
44481;BME280;30184;42.018;23.670;2022-07-10T05:42:27;90916.53;;;19.22;47.58
44481;BME280;30184;42.018;23.670;2022-07-10T05:44:56;90944.75;;;19.00;46.17
44481;BME280;30184;42.018;23.670;2022-07-10T05:47:25;91030.66;;;19.71;45.68
44481;BME280;30184;42.018;23.670;2022-07-10T05:49:54;91235.81;;;21.32;44.62
44481;BME280;30184;42.018;23.670;2022-07-10T05:52:24;91125.81;;;20.51;45.55
44481;BME280;30184;42.018;23.670;2022-07-10T05:54:53;91013.75;;;20.75;44.99
44481;BME280;30184;42.018;23.670;2022-07-10T05:57:23;91087.06;;;21.29;43.45
44481;BME280;30184;42.018;23.670;2022-07-10T05:59:53;91041.44;;;20.08;44.69
44481;BME280;30184;42.018;23.670;2022-07-10T06:02:22;91016.41;;;19.90;43.84
44481;BME280;30184;42.018;23.670;2022-07-10T06:04:52;91300.63;;;22.11;44.61
44481;BME280;30184;42.018;23.670;2022-07-10T06:07:21;90788.53;;;18.82;44.36
44481;BME280;30184;42.018;23.670;2022-07-10T06:09:50;91248.75;;;21.76;45.46
44481;BME280;30184;42.018;23.670;2022-07-10T06:12:20;90935.78;;;19.17;47.19
44481;BME280;30184;42.018;23.670;2022-07-10T06:14:50;91221.72;;;20.07;47.67
44481;BME280;30184;42.018;23.670;2022-07-10T06:17:20;90945.75;;;18.33;48.70
44481;BME280;30184;42.018;23.670;2022-07-10T06:19:49;91063.59;;;18.31;48.31
44481;BME280;30184;42.018;23.670;2022-07-10T06:22:18;90925.59;;;17.62;50.33
44481;BME280;30184;42.018;23.670;2022-07-10T06:25:00;91116.81;;;19.18;49.52
44481;BME280;30184;42.018;23.670;2022-07-10T06:27:30;91035.22;;;18.08;50.99
44481;BME280;30184;42.018;23.670;2022-07-10T06:30:01;91247.22;;;19.97;51.68
44481;BME280;30184;42.018;23.670;2022-07-10T06:32:30;91034.66;;;18.35;52.46
44481;BME280;30184;42.018;23.670;2022-07-10T06:34:59;91320.28;;;19.44;53.63
44481;BME280;30184;42.018;23.670;2022-07-10T06:37:30;91070.47;;;18.52;54.78
44481;BME280;30184;42.018;23.670;2022-07-10T06:39:59;91089.25;;;17.90;54.12
44481;BME280;30184;42.018;23.670;2022-07-10T06:42:28;90973.69;;;16.94;53.63
44481;BME280;30184;42.018;23.670;2022-07-10T06:45:01;91096.16;;;18.06;54.29
44481;BME280;30184;42.018;23.670;2022-07-10T06:47:30;90968.06;;;17.35;56.22
44481;BME280;30184;42.018;23.670;2022-07-10T06:50:18;91012.91;;;17.06;57.90
44481;BME280;30184;42.018;23.670;2022-07-10T06:52:49;91211.56;;;18.49;55.35
44481;BME280;30184;42.018;23.670;2022-07-10T06:55:19;90914.91;;;16.95;56.89
44481;BME280;30184;42.018;23.670;2022-07-10T06:57:48;91101.78;;;18.28;55.82
44481;BME280;30184;42.018;23.670;2022-07-10T07:00:19;90944.41;;;17.37;55.12
44481;BME280;30184;42.018;23.670;2022-07-10T07:02:48;91188.16;;;19.38;55.17
44481;BME280;30184;42.018;23.670;2022-07-10T07:05:17;90965.13;;;17.70;55.10
44481;BME280;30184;42.018;23.670;2022-07-10T07:07:47;90984.91;;;17.22;54.80
44481;BME280;30184;42.018;23.670;2022-07-10T07:10:16;90932.81;;;16.96;55.29
44481;BME280;30184;42.018;23.670;2022-07-10T07:12:45;91143.25;;;19.05;55.54
44481;BME280;30184;42.018;23.670;2022-07-10T07:15:14;90816.06;;;17.04;54.89
44481;BME280;30184;42.018;23.670;2022-07-10T07:17:46;90883.84;;;17.41;54.90
44481;BME280;30184;42.018;23.670;2022-07-10T07:20:25;91013.19;;;18.34;55.89
44481;BME280;30184;42.018;23.670;2022-07-10T07:23:11;91038.88;;;18.25;57.50
44481;BME280;30184;42.018;23.670;2022-07-10T07:25:41;91059.13;;;18.70;54.77
44481;BME280;30184;42.018;23.670;2022-07-10T07:28:14;90927.28;;;17.85;54.33
44481;BME280;30184;42.018;23.670;2022-07-10T07:30:45;91017.47;;;18.88;54.89
44481;BME280;30184;42.018;23.670;2022-07-10T07:33:16;91084.09;;;19.26;55.28
44481;BME280;30184;42.018;23.670;2022-07-10T07:35:46;91057.97;;;19.92;54.07
44481;BME280;30184;42.018;23.670;2022-07-10T07:38:15;90984.13;;;18.64;52.05
44481;BME280;30184;42.018;23.670;2022-07-10T07:40:45;91135.03;;;20.98;52.54
44481;BME280;30184;42.018;23.670;2022-07-10T07:43:14;90970.56;;;19.42;51.28
44481;BME280;30184;42.018;23.670;2022-07-10T07:45:43;90940.78;;;20.07;49.57
44481;BME280;30184;42.018;23.670;2022-07-10T07:48:12;91117.22;;;20.99;51.29
44481;BME280;30184;42.018;23.670;2022-07-10T07:50:44;90965.50;;;20.24;48.21
44481;BME280;30184;42.018;23.670;2022-07-10T07:53:13;91142.53;;;21.08;49.16
44481;BME280;30184;42.018;23.670;2022-07-10T07:55:43;91019.25;;;20.81;47.62
44481;BME280;30184;42.018;23.670;2022-07-10T07:58:12;91051.56;;;20.92;48.36
44481;BME280;30184;42.018;23.670;2022-07-10T08:00:42;90804.16;;;19.82;46.40
44481;BME280;30184;42.018;23.670;2022-07-10T08:03:11;91035.72;;;21.03;45.95
44481;BME280;30184;42.018;23.670;2022-07-10T08:05:40;91138.50;;;22.25;45.89
44481;BME280;30184;42.018;23.670;2022-07-10T08:08:10;90958.16;;;20.66;45.80
44481;BME280;30184;42.018;23.670;2022-07-10T08:10:40;90990.38;;;20.88;46.05
44481;BME280;30184;42.018;23.670;2022-07-10T08:13:11;90971.06;;;20.93;46.95
44481;BME280;30184;42.018;23.670;2022-07-10T08:15:44;90860.19;;;19.90;48.99
44481;BME280;30184;42.018;23.670;2022-07-10T08:18:13;90878.88;;;20.14;46.95
44481;BME280;30184;42.018;23.670;2022-07-10T08:20:42;91072.81;;;21.66;45.60
44481;BME280;30184;42.018;23.670;2022-07-10T08:23:12;90942.00;;;20.92;46.87
44481;BME280;30184;42.018;23.670;2022-07-10T08:25:42;91243.66;;;23.44;44.81
44481;BME280;30184;42.018;23.670;2022-07-10T08:28:11;90981.88;;;22.09;44.77
44481;BME280;30184;42.018;23.670;2022-07-10T08:30:40;91056.13;;;22.23;47.67
44481;BME280;30184;42.018;23.670;2022-07-10T08:33:10;90936.81;;;21.89;43.97
44481;BME280;30184;42.018;23.670;2022-07-10T08:35:39;91150.53;;;23.66;44.04
44481;BME280;30184;42.018;23.670;2022-07-10T08:38:08;91077.66;;;22.30;43.87
44481;BME280;30184;42.018;23.670;2022-07-10T08:40:39;91079.31;;;22.15;44.05
44481;BME280;30184;42.018;23.670;2022-07-10T08:43:08;91033.88;;;21.69;44.35
44481;BME280;30184;42.018;23.670;2022-07-10T08:45:40;91001.78;;;21.14;46.50
44481;BME280;30184;42.018;23.670;2022-07-10T08:48:09;90869.72;;;20.58;46.23
44481;BME280;30184;42.018;23.670;2022-07-10T08:50:44;91126.28;;;21.68;46.76
44481;BME280;30184;42.018;23.670;2022-07-10T08:53:20;91173.03;;;22.48;47.09
44481;BME280;30184;42.018;23.670;2022-07-10T08:55:51;91127.88;;;21.47;47.61
44481;BME280;30184;42.018;23.670;2022-07-10T08:58:22;91178.38;;;22.35;48.79
44481;BME280;30184;42.018;23.670;2022-07-10T09:00:51;91023.34;;;20.30;48.82
44481;BME280;30184;42.018;23.670;2022-07-10T09:03:20;91122.16;;;21.39;49.72
44481;BME280;30184;42.018;23.670;2022-07-10T09:05:51;91039.63;;;20.56;49.93
44481;BME280;30184;42.018;23.670;2022-07-10T09:08:24;91004.09;;;20.19;52.67
44481;BME280;30184;42.018;23.670;2022-07-10T09:11:13;90997.91;;;20.87;52.90
44481;BME280;30184;42.018;23.670;2022-07-10T09:13:50;91188.09;;;22.12;50.37
44481;BME280;30184;42.018;23.670;2022-07-10T09:16:21;90994.06;;;20.21;50.11
44481;BME280;30184;42.018;23.670;2022-07-10T09:18:50;90944.50;;;20.16;49.80
44481;BME280;30184;42.018;23.670;2022-07-10T09:21:20;90913.75;;;20.00;49.92
44481;BME280;30184;42.018;23.670;2022-07-10T09:23:55;90930.94;;;20.29;50.86
44481;BME280;30184;42.018;23.670;2022-07-10T09:26:29;91058.44;;;20.24;51.77
44481;BME280;30184;42.018;23.670;2022-07-10T09:29:06;90948.59;;;19.53;51.27
44481;BME280;30184;42.018;23.670;2022-07-10T09:31:49;91119.22;;;21.04;51.19
44481;BME280;30184;42.018;23.670;2022-07-10T09:34:37;90824.97;;;19.38;50.92
44481;BME280;30184;42.018;23.670;2022-07-10T09:37:20;91192.19;;;21.88;50.06
44481;BME280;30184;42.018;23.670;2022-07-10T09:39:57;91087.38;;;20.97;48.88
44481;BME280;30184;42.018;23.670;2022-07-10T09:42:29;91213.00;;;22.01;50.61
44481;BME280;30184;42.018;23.670;2022-07-10T09:45:19;91130.44;;;21.34;49.45
44481;BME280;30184;42.018;23.670;2022-07-10T09:47:56;91210.75;;;22.05;48.44
44481;BME280;30184;42.018;23.670;2022-07-10T09:50:27;91204.91;;;22.14;49.15
44481;BME280;30184;42.018;23.670;2022-07-10T09:52:58;91020.34;;;20.33;48.83
44481;BME280;30184;42.018;23.670;2022-07-10T09:55:29;91157.13;;;20.81;48.74
44481;BME280;30184;42.018;23.670;2022-07-10T09:58:00;90937.53;;;19.87;49.19
44481;BME280;30184;42.018;23.670;2022-07-10T10:00:31;91068.00;;;21.31;49.45
44481;BME280;30184;42.018;23.670;2022-07-10T10:03:03;91140.69;;;21.91;50.25
44481;BME280;30184;42.018;23.670;2022-07-10T10:05:37;91053.88;;;21.40;48.29
44481;BME280;30184;42.018;23.670;2022-07-10T10:08:11;91208.72;;;22.46;48.57
44481;BME280;30184;42.018;23.670;2022-07-10T10:10:45;91220.34;;;22.39;48.24
44481;BME280;30184;42.018;23.670;2022-07-10T10:13:18;90916.66;;;20.30;48.21
44481;BME280;30184;42.018;23.670;2022-07-10T10:15:49;90907.56;;;19.50;48.46
44481;BME280;30184;42.018;23.670;2022-07-10T10:18:20;90882.53;;;19.64;49.34
44481;BME280;30184;42.018;23.670;2022-07-10T10:20:51;91033.06;;;20.70;48.71
44481;BME280;30184;42.018;23.670;2022-07-10T10:23:20;90839.50;;;19.61;48.74
44481;BME280;30184;42.018;23.670;2022-07-10T10:25:51;91211.16;;;22.20;49.55
44481;BME280;30184;42.018;23.670;2022-07-10T10:28:23;91207.38;;;21.59;48.76
44481;BME280;30184;42.018;23.670;2022-07-10T10:30:54;91030.06;;;20.68;48.33
44481;BME280;30184;42.018;23.670;2022-07-10T10:33:45;90895.28;;;19.73;48.77
44481;BME280;30184;42.018;23.670;2022-07-10T10:36:44;91121.00;;;21.65;48.26
44481;BME280;30184;42.018;23.670;2022-07-10T10:39:15;91003.09;;;20.16;48.38
44481;BME280;30184;42.018;23.670;2022-07-10T10:41:50;91035.78;;;20.81;48.13
44481;BME280;30184;42.018;23.670;2022-07-10T10:44:36;91193.63;;;22.12;48.54
44481;BME280;30184;42.018;23.670;2022-07-10T10:47:06;91241.13;;;22.05;49.95
44481;BME280;30184;42.018;23.670;2022-07-10T10:49:55;91147.34;;;21.71;49.09
44481;BME280;30184;42.018;23.670;2022-07-10T10:52:27;91122.69;;;21.15;49.00
44481;BME280;30184;42.018;23.670;2022-07-10T10:55:05;91106.63;;;21.25;49.83
44481;BME280;30184;42.018;23.670;2022-07-10T10:57:37;91177.00;;;21.65;49.88
44481;BME280;30184;42.018;23.670;2022-07-10T11:00:15;91060.63;;;20.70;50.40
44481;BME280;30184;42.018;23.670;2022-07-10T11:03:12;90867.78;;;19.23;50.43
44481;BME280;30184;42.018;23.670;2022-07-10T11:05:43;91214.69;;;21.57;51.14
44481;BME280;30184;42.018;23.670;2022-07-10T11:08:13;90990.09;;;19.50;52.09
44481;BME280;30184;42.018;23.670;2022-07-10T11:10:43;91030.91;;;20.29;52.00
44481;BME280;30184;42.018;23.670;2022-07-10T11:13:16;91059.94;;;20.41;52.74
44481;BME280;30184;42.018;23.670;2022-07-10T11:15:48;91006.88;;;19.52;54.81
44481;BME280;30184;42.018;23.670;2022-07-10T11:18:21;90952.91;;;18.73;58.84
44481;BME280;30184;42.018;23.670;2022-07-10T11:20:52;90985.97;;;19.00;64.58
44481;BME280;30184;42.018;23.670;2022-07-10T11:23:43;90993.50;;;19.11;67.56
44481;BME280;30184;42.018;23.670;2022-07-10T11:26:24;91305.13;;;20.13;71.01
44481;BME280;30184;42.018;23.670;2022-07-10T11:28:58;91157.19;;;18.90;71.02
44481;BME280;30184;42.018;23.670;2022-07-10T11:31:29;90969.72;;;18.32;74.02
44481;BME280;30184;42.018;23.670;2022-07-10T11:34:01;91078.31;;;18.27;76.15
44481;BME280;30184;42.018;23.670;2022-07-10T11:36:30;91022.41;;;18.31;77.69
44481;BME280;30184;42.018;23.670;2022-07-10T11:39:01;91369.34;;;19.88;77.05
44481;BME280;30184;42.018;23.670;2022-07-10T11:41:32;90801.22;;;16.85;77.32
44481;BME280;30184;42.018;23.670;2022-07-10T11:44:03;91080.63;;;18.77;78.35
44481;BME280;30184;42.018;23.670;2022-07-10T11:46:34;91310.91;;;19.62;78.24
44481;BME280;30184;42.018;23.670;2022-07-10T11:49:06;91137.31;;;18.69;79.20
44481;BME280;30184;42.018;23.670;2022-07-10T11:51:38;91261.16;;;19.71;77.95
44481;BME280;30184;42.018;23.670;2022-07-10T11:54:09;90933.50;;;17.48;78.51
44481;BME280;30184;42.018;23.670;2022-07-10T11:56:40;91260.66;;;19.78;76.96
44481;BME280;30184;42.018;23.670;2022-07-10T11:59:10;91146.06;;;18.73;77.57
44481;BME280;30184;42.018;23.670;2022-07-10T12:01:43;91259.19;;;19.83;77.45
44481;BME280;30184;42.018;23.670;2022-07-10T12:04:13;91189.34;;;18.78;79.07
44481;BME280;30184;42.018;23.670;2022-07-10T12:06:45;90963.88;;;17.71;80.06
44481;BME280;30184;42.018;23.670;2022-07-10T12:09:15;91249.66;;;19.84;79.62
44481;BME280;30184;42.018;23.670;2022-07-10T12:11:57;91005.50;;;18.01;79.37
44481;BME280;30184;42.018;23.670;2022-07-10T12:14:27;91043.81;;;18.21;79.05
44481;BME280;30184;42.018;23.670;2022-07-10T12:16:59;91271.84;;;20.34;79.04
44481;BME280;30184;42.018;23.670;2022-07-10T12:19:30;91193.16;;;19.99;76.43
44481;BME280;30184;42.018;23.670;2022-07-10T12:22:02;91004.81;;;18.11;75.53
44481;BME280;30184;42.018;23.670;2022-07-10T12:24:34;91085.91;;;18.81;73.51
44481;BME280;30184;42.018;23.670;2022-07-10T12:27:04;90917.28;;;18.36;71.11
44481;BME280;30184;42.018;23.670;2022-07-10T12:29:35;91261.66;;;20.45;71.37
44481;BME280;30184;42.018;23.670;2022-07-10T12:32:06;90948.22;;;17.77;72.48
44481;BME280;30184;42.018;23.670;2022-07-10T12:34:37;91060.56;;;18.60;73.48
44481;BME280;30184;42.018;23.670;2022-07-10T12:37:08;91231.03;;;19.51;70.30
44481;BME280;30184;42.018;23.670;2022-07-10T12:39:46;90984.09;;;18.58;72.28
44481;BME280;30184;42.018;23.670;2022-07-10T12:42:25;91015.03;;;18.53;74.90
44481;BME280;30184;42.018;23.670;2022-07-10T12:45:08;91342.59;;;19.94;76.72
44481;BME280;30184;42.018;23.670;2022-07-10T12:47:45;91043.97;;;17.75;79.01
44481;BME280;30184;42.018;23.670;2022-07-10T12:50:15;91147.41;;;18.52;79.67
44481;BME280;30184;42.018;23.670;2022-07-10T12:52:46;91194.41;;;19.33;80.61
44481;BME280;30184;42.018;23.670;2022-07-10T12:55:17;90990.97;;;17.06;80.77
44481;BME280;30184;42.018;23.670;2022-07-10T12:57:50;91034.25;;;18.11;80.90
44481;BME280;30184;42.018;23.670;2022-07-10T13:00:21;91174.81;;;18.41;79.90
44481;BME280;30184;42.018;23.670;2022-07-10T13:03:00;91328.13;;;18.88;79.91
44481;BME280;30184;42.018;23.670;2022-07-10T13:05:30;91030.88;;;16.46;80.55
44481;BME280;30184;42.018;23.670;2022-07-10T13:08:07;91323.03;;;19.07;82.99
44481;BME280;30184;42.018;23.670;2022-07-10T13:10:39;91298.09;;;18.85;82.25
44481;BME280;30184;42.018;23.670;2022-07-10T13:13:08;91205.47;;;17.82;84.62
44481;BME280;30184;42.018;23.670;2022-07-10T13:15:38;91085.75;;;17.12;86.76
44481;BME280;30184;42.018;23.670;2022-07-10T13:18:17;91238.84;;;18.26;86.13